Bei Facebook empfehlenBei Twitter postenGoogle plusPinterest

Das Wetter im Erzgebirge am 08.12.2016

Wetter und Klima am 08.12.2016 Holzhau im Erzgebirge (630m ü.NN)
Letzte gemessene Temperatur und Uhrzeit der Messung23:45:00 Uhr2.30 °C
Temperatur (Maximum / Höchstwert) und Uhrzeit der Messung14:15:00 Uhr11.00 °C
Temperatur (Minimum / Tiefstwert) und Uhrzeit der Messung08:45:000.10 °C
Errechneter Absolutwert der Temperaturschwankungen zwischen Tmin und Tmax des Tages10.90 K
Errechnete Tagesmitteltemperatur3.57813 °C
Gesamt - Niederschlag des Tages (in flüssiger Form)0.00 Liter / m²
Luftdruck (Maximum / Höchstwert) und Zeitpunkt der Messung03:15:00 Uhr1026.90 hPa
Luftdruck (Minimum / Tiefstwert) und Zeitpunkt der Messung23:30:00 Uhr1022.20 hPa
Errechneter Absolutwert der Luftdruckschwankungen des Tages4.70 hPa
Höchste gemessene Windgeschwindigkeit und Uhrzeit der Messung23:45:00 Uhr0.00 km/h
Errechnete Windhäufigkeit in Relation zu den Messwerten des Tages0.00000 %
Niedrigste Windkühle (Windchill) und Zeitpunkt der Messung08:45:00 Uhr0.10 °C
Taupunkt (Maximum / Höchstwert) und Uhrzeit der Messung10:45:00 Uhr6.00 °C
Taupunkt (Minimum / Tiefstwert) und Uhrzeit der Messung16:45:00-4.50 °C
Anzahl der automatisch eingelesenen Messwerte 96

Detaillierte Wetter- und Klima- Messwerte für den 08.12.2016 in Holzhau im Erzgebirge (630m ü.NN)
ZeitTemperaturLuftdruckRel. LuftfeuchteWindWindrichtungWindchillTaupunktNiederschlag l/m²
23:45:002.30 °C1022.50 hPa73.00 %-2.00 °C 
23:30:002.30 °C1022.20 hPa73.00 %-2.00 °C 
23:15:002.10 °C1022.40 hPa74.00 %-2.00 °C 
23:00:001.80 °C1022.90 hPa74.00 %-2.30 °C 
22:45:001.80 °C1023.10 hPa73.00 %-2.50 °C 
22:30:001.90 °C1023.20 hPa72.00 %-2.60 °C 
22:15:001.90 °C1022.70 hPa72.00 %-2.60 °C 
22:00:002.10 °C1022.80 hPa71.00 %-2.60 °C 
21:45:002.10 °C1023.00 hPa72.00 %-2.40 °C 
21:30:001.60 °C1023.20 hPa71.00 %-3.10 °C 
21:15:001.80 °C1023.30 hPa70.00 %-3.10 °C 
21:00:001.90 °C1023.40 hPa69.00 %-3.20 °C 
20:45:002.20 °C1023.50 hPa68.00 %-3.10 °C 
20:30:002.40 °C1023.60 hPa67.00 %-3.10 °C 
20:15:002.10 °C1023.40 hPa67.00 %-3.40 °C 
20:00:002.30 °C1023.50 hPa67.00 %-3.20 °C 
19:45:002.60 °C1023.60 hPa67.00 %-2.90 °C 
19:30:002.10 °C1023.70 hPa68.00 %-3.20 °C 
19:15:002.10 °C1023.90 hPa67.00 %-3.40 °C 
19:00:001.90 °C1024.00 hPa67.00 %-3.60 °C 
18:45:001.90 °C1023.90 hPa65.00 %-4.00 °C 
18:30:002.20 °C1023.90 hPa64.00 %-3.90 °C 
18:15:002.30 °C1024.10 hPa63.00 %-4.00 °C 
18:00:002.60 °C1024.10 hPa62.00 %-3.90 °C 
17:45:002.90 °C1024.20 hPa60.00 %-4.10 °C 
17:30:003.50 °C1024.00 hPa58.00 %-4.00 °C 
17:15:004.30 °C1024.10 hPa55.00 %-3.90 °C 
17:00:004.80 °C1024.10 hPa53.00 %-4.00 °C 
16:45:004.50 °C1024.10 hPa52.00 %-4.50 °C 
16:30:005.10 °C1024.20 hPa51.00 %-4.20 °C 
16:15:005.60 °C1024.20 hPa49.00 %-4.30 °C 
16:00:005.90 °C1024.20 hPa48.00 %-4.30 °C 
15:45:006.90 °C1024.10 hPa46.00 %-3.90 °C 
15:30:008.10 °C1024.20 hPa43.00 %-3.70 °C 
15:15:008.90 °C1024.20 hPa42.00 %-3.30 °C 
15:00:009.60 °C1024.10 hPa42.00 %-2.70 °C 
14:45:0010.30 °C1024.00 hPa42.00 %-2.00 °C 
14:30:0010.90 °C1024.10 hPa41.00 %-1.80 °C 
14:15:0011.00 °C1024.00 hPa41.00 %-1.70 °C 
14:00:0011.00 °C1024.20 hPa43.00 %-1.10 °C 
13:45:0010.90 °C1024.30 hPa42.00 %-1.50 °C 
13:30:0010.80 °C1024.60 hPa43.00 %-1.30 °C 
13:15:0010.60 °C1024.80 hPa43.00 %-1.40 °C 
13:00:0010.80 °C1024.80 hPa45.00 %-0.60 °C 
12:45:0010.80 °C1024.90 hPa45.00 %-0.60 °C 
12:30:0010.40 °C1025.00 hPa48.00 %-0.10 °C 
12:15:009.90 °C1025.10 hPa51.00 %0.30 °C 
12:00:009.60 °C1025.20 hPa53.00 %0.50 °C 
11:45:009.20 °C1025.30 hPa58.00 %1.40 °C 
11:30:008.80 °C1025.40 hPa68.00 %3.20 °C 
11:15:008.60 °C1025.80 hPa77.00 %4.80 °C 
11:00:008.30 °C1025.80 hPa85.00 %5.90 °C 
10:45:007.20 °C1025.90 hPa92.00 %6.00 °C 
10:30:005.80 °C1026.10 hPa95.00 %5.10 °C 
10:15:003.80 °C1025.90 hPa95.00 %3.10 °C 
10:00:002.40 °C1026.10 hPa95.00 %1.70 °C 
09:45:001.40 °C1026.20 hPa95.00 %0.70 °C 
09:30:000.80 °C1026.00 hPa95.00 %0.10 °C 
09:15:000.30 °C1026.00 hPa94.00 %-0.50 °C 
09:00:000.30 °C1025.80 hPa94.00 %-0.50 °C 
08:45:000.10 °C1025.80 hPa94.00 %-0.70 °C 
08:30:000.10 °C1025.80 hPa94.00 %-0.70 °C 
08:15:000.30 °C1025.80 hPa94.00 %-0.50 °C 
08:00:000.40 °C1025.80 hPa94.00 %-0.50 °C 
07:45:000.60 °C1025.90 hPa94.00 %-0.30 °C 
07:30:000.90 °C1026.00 hPa93.00 %-0.10 °C 
07:15:001.10 °C1025.90 hPa93.00 %0.10 °C 
07:00:001.20 °C1025.80 hPa93.00 %0.20 °C 
06:45:001.30 °C1025.90 hPa93.00 %0.30 °C 
06:30:001.30 °C1025.90 hPa93.00 %0.30 °C 
06:15:001.40 °C1025.90 hPa93.00 %0.40 °C 
06:00:001.50 °C1026.00 hPa93.00 %0.50 °C 
05:45:001.60 °C1026.10 hPa94.00 %0.70 °C 
05:30:001.70 °C1026.10 hPa94.00 %0.80 °C 
05:15:001.60 °C1026.00 hPa93.00 %0.60 °C 
05:00:001.60 °C1025.90 hPa93.00 %0.60 °C 
04:45:001.30 °C1025.90 hPa93.00 %0.30 °C 
04:30:000.90 °C1025.90 hPa93.00 %-0.10 °C 
04:15:000.90 °C1026.10 hPa93.00 %-0.10 °C 
04:00:000.80 °C1026.50 hPa93.00 %-0.20 °C 
03:45:000.80 °C1026.70 hPa92.00 %-0.30 °C 
03:30:000.80 °C1026.60 hPa92.00 %-0.30 °C 
03:15:001.10 °C1026.90 hPa92.00 %-0.10 °C 
03:00:001.30 °C1026.90 hPa92.00 %0.10 °C 
02:45:001.40 °C1026.80 hPa92.00 %0.20 °C 
02:30:001.60 °C1026.70 hPa92.00 %0.40 °C 
02:15:001.40 °C1026.60 hPa92.00 %0.20 °C 
02:00:001.30 °C1026.40 hPa91.00 %0.00 °C 
01:45:001.30 °C1026.50 hPa91.00 %0.00 °C 
01:30:001.30 °C1026.40 hPa91.00 %0.00 °C 
01:15:001.30 °C1026.30 hPa91.00 %0.00 °C 
01:00:001.30 °C1026.30 hPa91.00 %0.00 °C 
00:45:001.30 °C1026.20 hPa91.00 %0.00 °C 
00:30:001.20 °C1026.40 hPa91.00 %-0.10 °C 
00:15:000.80 °C1026.50 hPa90.00 %-0.60 °C 
00:00:000.40 °C1026.50 hPa90.00 %-1.00 °C 

Permanenter Link zu dieser Seite: Wetter im Erzgebirge am 08.12.2016
Performance-Info: Die Erstellung der Seite / Statistik(en) / Tabelle(n) erforderte 5 Datenbankserver-Abfrage(n) und dauerte 101 Millisekunden. (Dieser Messwert ist von der Gesamt-Auslastung des Servers abhängig.)
Erzgebirge - Wetter | Erzgebirge - Wetter (Mobilgeräte) | Komplette Klimadatenbank